sensor_id;sensor_type;location;lat;lon;timestamp;P1;durP1;ratioP1;P2;durP2;ratioP2
25409;SDS011;13339;50.840;4.346;2024-01-06T00:01:03;9.53;;;2.93;;
25409;SDS011;13339;50.840;4.346;2024-01-06T00:03:28;6.33;;;3.40;;
25409;SDS011;13339;50.840;4.346;2024-01-06T00:05:54;6.50;;;3.10;;
25409;SDS011;13339;50.840;4.346;2024-01-06T00:08:19;12.07;;;3.53;;
25409;SDS011;13339;50.840;4.346;2024-01-06T00:10:45;5.73;;;3.03;;
25409;SDS011;13339;50.840;4.346;2024-01-06T00:13:11;9.53;;;2.93;;
25409;SDS011;13339;50.840;4.346;2024-01-06T00:15:36;10.63;;;2.87;;
25409;SDS011;13339;50.840;4.346;2024-01-06T00:18:02;8.10;;;2.90;;
25409;SDS011;13339;50.840;4.346;2024-01-06T00:20:28;8.17;;;2.80;;
25409;SDS011;13339;50.840;4.346;2024-01-06T00:22:53;8.27;;;2.90;;
25409;SDS011;13339;50.840;4.346;2024-01-06T00:25:21;5.53;;;2.63;;
25409;SDS011;13339;50.840;4.346;2024-01-06T00:27:47;6.53;;;2.50;;
25409;SDS011;13339;50.840;4.346;2024-01-06T00:30:13;6.93;;;3.20;;
25409;SDS011;13339;50.840;4.346;2024-01-06T00:32:39;3.77;;;2.80;;
25409;SDS011;13339;50.840;4.346;2024-01-06T00:35:05;5.87;;;2.23;;
25409;SDS011;13339;50.840;4.346;2024-01-06T00:37:31;7.03;;;2.83;;
25409;SDS011;13339;50.840;4.346;2024-01-06T00:39:56;8.57;;;2.73;;
25409;SDS011;13339;50.840;4.346;2024-01-06T00:42:24;6.37;;;2.70;;
25409;SDS011;13339;50.840;4.346;2024-01-06T00:44:50;6.17;;;2.70;;
25409;SDS011;13339;50.840;4.346;2024-01-06T00:47:16;5.70;;;2.40;;
25409;SDS011;13339;50.840;4.346;2024-01-06T00:49:41;4.23;;;2.93;;
25409;SDS011;13339;50.840;4.346;2024-01-06T00:52:07;5.33;;;2.90;;
25409;SDS011;13339;50.840;4.346;2024-01-06T00:54:33;4.63;;;2.60;;
25409;SDS011;13339;50.840;4.346;2024-01-06T00:56:58;4.03;;;2.50;;
25409;SDS011;13339;50.840;4.346;2024-01-06T00:59:24;4.77;;;2.80;;
25409;SDS011;13339;50.840;4.346;2024-01-06T01:01:50;3.77;;;2.60;;
25409;SDS011;13339;50.840;4.346;2024-01-06T01:04:15;8.37;;;3.00;;
25409;SDS011;13339;50.840;4.346;2024-01-06T01:06:41;8.47;;;2.70;;
25409;SDS011;13339;50.840;4.346;2024-01-06T01:09:07;5.20;;;2.87;;
25409;SDS011;13339;50.840;4.346;2024-01-06T01:11:34;5.70;;;2.80;;
25409;SDS011;13339;50.840;4.346;2024-01-06T01:13:59;5.13;;;2.90;;
25409;SDS011;13339;50.840;4.346;2024-01-06T01:16:25;8.10;;;3.17;;
25409;SDS011;13339;50.840;4.346;2024-01-06T01:18:50;7.93;;;3.10;;
25409;SDS011;13339;50.840;4.346;2024-01-06T01:21:16;4.53;;;2.70;;
25409;SDS011;13339;50.840;4.346;2024-01-06T01:23:42;6.40;;;3.33;;
25409;SDS011;13339;50.840;4.346;2024-01-06T01:26:08;8.77;;;3.63;;
25409;SDS011;13339;50.840;4.346;2024-01-06T01:28:33;7.63;;;3.90;;
25409;SDS011;13339;50.840;4.346;2024-01-06T01:30:59;9.87;;;3.57;;
25409;SDS011;13339;50.840;4.346;2024-01-06T01:33:25;8.67;;;3.27;;
25409;SDS011;13339;50.840;4.346;2024-01-06T01:35:50;11.87;;;3.93;;
25409;SDS011;13339;50.840;4.346;2024-01-06T01:38:16;9.07;;;3.43;;
25409;SDS011;13339;50.840;4.346;2024-01-06T01:40:42;10.67;;;3.80;;
25409;SDS011;13339;50.840;4.346;2024-01-06T01:43:15;5.93;;;2.97;;
25409;SDS011;13339;50.840;4.346;2024-01-06T01:45:41;6.33;;;3.00;;
25409;SDS011;13339;50.840;4.346;2024-01-06T01:48:07;6.93;;;3.10;;
25409;SDS011;13339;50.840;4.346;2024-01-06T01:50:33;4.40;;;2.67;;
25409;SDS011;13339;50.840;4.346;2024-01-06T01:52:59;7.70;;;2.63;;
25409;SDS011;13339;50.840;4.346;2024-01-06T01:55:25;8.47;;;2.77;;
25409;SDS011;13339;50.840;4.346;2024-01-06T01:57:51;6.30;;;2.97;;
25409;SDS011;13339;50.840;4.346;2024-01-06T02:00:17;6.43;;;2.40;;
25409;SDS011;13339;50.840;4.346;2024-01-06T02:02:42;5.07;;;2.23;;
25409;SDS011;13339;50.840;4.346;2024-01-06T02:05:08;4.37;;;1.90;;
25409;SDS011;13339;50.840;4.346;2024-01-06T02:07:34;4.07;;;1.90;;
25409;SDS011;13339;50.840;4.346;2024-01-06T02:10:00;3.97;;;2.10;;
25409;SDS011;13339;50.840;4.346;2024-01-06T02:12:25;3.50;;;1.93;;
25409;SDS011;13339;50.840;4.346;2024-01-06T02:14:51;4.57;;;1.90;;
25409;SDS011;13339;50.840;4.346;2024-01-06T02:17:16;9.87;;;2.23;;
25409;SDS011;13339;50.840;4.346;2024-01-06T02:19:42;3.93;;;2.20;;
25409;SDS011;13339;50.840;4.346;2024-01-06T02:22:08;5.63;;;2.13;;
25409;SDS011;13339;50.840;4.346;2024-01-06T02:24:33;5.60;;;1.90;;
25409;SDS011;13339;50.840;4.346;2024-01-06T02:26:59;4.27;;;2.03;;
25409;SDS011;13339;50.840;4.346;2024-01-06T02:29:24;3.13;;;1.77;;
25409;SDS011;13339;50.840;4.346;2024-01-06T02:31:50;4.63;;;2.20;;
25409;SDS011;13339;50.840;4.346;2024-01-06T02:34:16;2.77;;;2.10;;
25409;SDS011;13339;50.840;4.346;2024-01-06T02:36:41;3.90;;;1.93;;
25409;SDS011;13339;50.840;4.346;2024-01-06T02:39:07;3.83;;;2.10;;
25409;SDS011;13339;50.840;4.346;2024-01-06T02:41:32;2.50;;;2.00;;
25409;SDS011;13339;50.840;4.346;2024-01-06T02:43:58;3.03;;;2.20;;
25409;SDS011;13339;50.840;4.346;2024-01-06T02:46:24;2.57;;;1.80;;
25409;SDS011;13339;50.840;4.346;2024-01-06T02:48:49;3.37;;;1.77;;
25409;SDS011;13339;50.840;4.346;2024-01-06T02:51:15;3.50;;;1.80;;
25409;SDS011;13339;50.840;4.346;2024-01-06T02:53:40;2.43;;;1.90;;
25409;SDS011;13339;50.840;4.346;2024-01-06T02:56:09;3.13;;;2.10;;
25409;SDS011;13339;50.840;4.346;2024-01-06T02:58:36;3.60;;;2.30;;
25409;SDS011;13339;50.840;4.346;2024-01-06T03:01:02;4.70;;;2.37;;
25409;SDS011;13339;50.840;4.346;2024-01-06T03:03:27;2.20;;;1.90;;
25409;SDS011;13339;50.840;4.346;2024-01-06T03:05:53;5.60;;;2.20;;
25409;SDS011;13339;50.840;4.346;2024-01-06T03:08:18;6.63;;;2.40;;
25409;SDS011;13339;50.840;4.346;2024-01-06T03:10:44;4.70;;;2.57;;
25409;SDS011;13339;50.840;4.346;2024-01-06T03:13:10;2.53;;;1.90;;
25409;SDS011;13339;50.840;4.346;2024-01-06T03:15:35;2.90;;;2.27;;
25409;SDS011;13339;50.840;4.346;2024-01-06T03:18:01;4.93;;;2.33;;
25409;SDS011;13339;50.840;4.346;2024-01-06T03:20:26;2.67;;;2.10;;
25409;SDS011;13339;50.840;4.346;2024-01-06T03:22:52;2.50;;;2.30;;
25409;SDS011;13339;50.840;4.346;2024-01-06T03:25:18;4.10;;;2.47;;
25409;SDS011;13339;50.840;4.346;2024-01-06T03:27:43;3.43;;;2.37;;
25409;SDS011;13339;50.840;4.346;2024-01-06T03:30:09;3.37;;;2.53;;
25409;SDS011;13339;50.840;4.346;2024-01-06T03:32:35;2.63;;;2.43;;
25409;SDS011;13339;50.840;4.346;2024-01-06T03:35:01;5.20;;;2.60;;
25409;SDS011;13339;50.840;4.346;2024-01-06T03:37:26;4.33;;;2.70;;
25409;SDS011;13339;50.840;4.346;2024-01-06T03:39:52;4.00;;;2.87;;
25409;SDS011;13339;50.840;4.346;2024-01-06T03:42:18;4.20;;;3.43;;
25409;SDS011;13339;50.840;4.346;2024-01-06T03:44:43;4.63;;;3.57;;
25409;SDS011;13339;50.840;4.346;2024-01-06T03:47:09;6.07;;;4.10;;
25409;SDS011;13339;50.840;4.346;2024-01-06T03:49:34;5.97;;;4.47;;
25409;SDS011;13339;50.840;4.346;2024-01-06T03:52:00;7.60;;;4.50;;
25409;SDS011;13339;50.840;4.346;2024-01-06T03:54:26;8.43;;;4.87;;
25409;SDS011;13339;50.840;4.346;2024-01-06T03:56:51;6.03;;;5.00;;
25409;SDS011;13339;50.840;4.346;2024-01-06T03:59:17;8.50;;;5.60;;
25409;SDS011;13339;50.840;4.346;2024-01-06T04:01:43;7.67;;;5.40;;
25409;SDS011;13339;50.840;4.346;2024-01-06T04:04:08;8.53;;;5.60;;
25409;SDS011;13339;50.840;4.346;2024-01-06T04:06:34;7.87;;;5.97;;
25409;SDS011;13339;50.840;4.346;2024-01-06T04:09:00;8.67;;;5.77;;
25409;SDS011;13339;50.840;4.346;2024-01-06T04:11:26;7.07;;;6.00;;
25409;SDS011;13339;50.840;4.346;2024-01-06T04:13:51;8.93;;;5.93;;
25409;SDS011;13339;50.840;4.346;2024-01-06T04:16:17;11.43;;;6.57;;
25409;SDS011;13339;50.840;4.346;2024-01-06T04:18:43;6.83;;;6.07;;
25409;SDS011;13339;50.840;4.346;2024-01-06T04:21:08;8.27;;;6.40;;
25409;SDS011;13339;50.840;4.346;2024-01-06T04:23:34;13.07;;;6.87;;
25409;SDS011;13339;50.840;4.346;2024-01-06T04:25:59;12.80;;;6.63;;
25409;SDS011;13339;50.840;4.346;2024-01-06T04:28:26;11.23;;;7.17;;
25409;SDS011;13339;50.840;4.346;2024-01-06T04:30:52;8.40;;;6.93;;
25409;SDS011;13339;50.840;4.346;2024-01-06T04:33:18;9.63;;;7.37;;
25409;SDS011;13339;50.840;4.346;2024-01-06T04:35:44;12.40;;;6.93;;
25409;SDS011;13339;50.840;4.346;2024-01-06T04:38:09;15.20;;;7.07;;
25409;SDS011;13339;50.840;4.346;2024-01-06T04:40:35;14.93;;;7.40;;
25409;SDS011;13339;50.840;4.346;2024-01-06T04:43:01;11.70;;;7.07;;
25409;SDS011;13339;50.840;4.346;2024-01-06T04:45:26;14.37;;;6.97;;
25409;SDS011;13339;50.840;4.346;2024-01-06T04:47:52;11.97;;;7.67;;
25409;SDS011;13339;50.840;4.346;2024-01-06T04:50:17;10.77;;;7.40;;
25409;SDS011;13339;50.840;4.346;2024-01-06T04:52:43;11.33;;;7.20;;
25409;SDS011;13339;50.840;4.346;2024-01-06T04:55:09;10.23;;;7.10;;
25409;SDS011;13339;50.840;4.346;2024-01-06T04:57:35;9.80;;;6.80;;
25409;SDS011;13339;50.840;4.346;2024-01-06T05:00:02;10.70;;;7.00;;
25409;SDS011;13339;50.840;4.346;2024-01-06T05:02:28;13.53;;;7.30;;
25409;SDS011;13339;50.840;4.346;2024-01-06T05:04:54;13.07;;;7.90;;
25409;SDS011;13339;50.840;4.346;2024-01-06T05:07:20;14.83;;;7.83;;
25409;SDS011;13339;50.840;4.346;2024-01-06T05:09:45;13.97;;;7.47;;
25409;SDS011;13339;50.840;4.346;2024-01-06T05:12:11;11.67;;;7.17;;
25409;SDS011;13339;50.840;4.346;2024-01-06T05:14:36;13.17;;;7.33;;
25409;SDS011;13339;50.840;4.346;2024-01-06T05:17:02;14.00;;;8.00;;
25409;SDS011;13339;50.840;4.346;2024-01-06T05:19:28;11.00;;;7.50;;
25409;SDS011;13339;50.840;4.346;2024-01-06T05:21:53;12.83;;;7.17;;
25409;SDS011;13339;50.840;4.346;2024-01-06T05:24:19;17.03;;;8.30;;
25409;SDS011;13339;50.840;4.346;2024-01-06T05:26:45;17.20;;;7.63;;
25409;SDS011;13339;50.840;4.346;2024-01-06T05:29:11;13.60;;;7.70;;
25409;SDS011;13339;50.840;4.346;2024-01-06T05:31:36;12.63;;;6.97;;
25409;SDS011;13339;50.840;4.346;2024-01-06T05:34:02;11.37;;;6.97;;
25409;SDS011;13339;50.840;4.346;2024-01-06T05:36:27;13.73;;;7.00;;
25409;SDS011;13339;50.840;4.346;2024-01-06T05:38:53;11.10;;;6.40;;
25409;SDS011;13339;50.840;4.346;2024-01-06T05:41:19;12.47;;;6.73;;
25409;SDS011;13339;50.840;4.346;2024-01-06T05:43:44;14.90;;;7.30;;
25409;SDS011;13339;50.840;4.346;2024-01-06T05:46:10;11.97;;;6.80;;
25409;SDS011;13339;50.840;4.346;2024-01-06T05:48:36;12.33;;;7.40;;
25409;SDS011;13339;50.840;4.346;2024-01-06T05:51:03;11.87;;;6.40;;
25409;SDS011;13339;50.840;4.346;2024-01-06T05:53:30;11.70;;;6.63;;
25409;SDS011;13339;50.840;4.346;2024-01-06T05:55:56;13.30;;;7.47;;
25409;SDS011;13339;50.840;4.346;2024-01-06T05:58:22;12.50;;;7.43;;
25409;SDS011;13339;50.840;4.346;2024-01-06T06:00:47;11.80;;;6.70;;
25409;SDS011;13339;50.840;4.346;2024-01-06T06:03:13;13.27;;;6.97;;
25409;SDS011;13339;50.840;4.346;2024-01-06T06:05:39;14.17;;;6.63;;
25409;SDS011;13339;50.840;4.346;2024-01-06T06:08:04;13.07;;;7.20;;
25409;SDS011;13339;50.840;4.346;2024-01-06T06:10:30;10.90;;;6.33;;
25409;SDS011;13339;50.840;4.346;2024-01-06T06:13:06;15.37;;;7.53;;
25409;SDS011;13339;50.840;4.346;2024-01-06T06:15:34;14.57;;;7.10;;
25409;SDS011;13339;50.840;4.346;2024-01-06T06:18:00;11.13;;;6.40;;
25409;SDS011;13339;50.840;4.346;2024-01-06T06:20:26;12.97;;;6.70;;
25409;SDS011;13339;50.840;4.346;2024-01-06T06:22:51;12.73;;;6.67;;
25409;SDS011;13339;50.840;4.346;2024-01-06T06:25:17;9.80;;;6.43;;
25409;SDS011;13339;50.840;4.346;2024-01-06T06:27:42;12.43;;;6.50;;
25409;SDS011;13339;50.840;4.346;2024-01-06T06:30:08;12.97;;;5.77;;
25409;SDS011;13339;50.840;4.346;2024-01-06T06:32:34;16.57;;;6.43;;
25409;SDS011;13339;50.840;4.346;2024-01-06T06:35:00;9.03;;;6.43;;
25409;SDS011;13339;50.840;4.346;2024-01-06T06:37:26;9.67;;;6.53;;
25409;SDS011;13339;50.840;4.346;2024-01-06T06:39:52;10.43;;;7.53;;
25409;SDS011;13339;50.840;4.346;2024-01-06T06:42:18;12.43;;;8.23;;
25409;SDS011;13339;50.840;4.346;2024-01-06T06:44:43;13.07;;;8.27;;
25409;SDS011;13339;50.840;4.346;2024-01-06T06:47:09;14.60;;;8.07;;
25409;SDS011;13339;50.840;4.346;2024-01-06T06:49:34;12.87;;;6.83;;
25409;SDS011;13339;50.840;4.346;2024-01-06T06:52:00;13.17;;;6.77;;
25409;SDS011;13339;50.840;4.346;2024-01-06T06:54:27;9.50;;;6.63;;
25409;SDS011;13339;50.840;4.346;2024-01-06T06:56:53;12.47;;;6.43;;
25409;SDS011;13339;50.840;4.346;2024-01-06T06:59:19;13.97;;;7.53;;
25409;SDS011;13339;50.840;4.346;2024-01-06T07:01:45;9.10;;;6.60;;
25409;SDS011;13339;50.840;4.346;2024-01-06T07:04:10;10.63;;;7.30;;
25409;SDS011;13339;50.840;4.346;2024-01-06T07:06:36;14.23;;;7.30;;
25409;SDS011;13339;50.840;4.346;2024-01-06T07:09:02;9.23;;;6.73;;
25409;SDS011;13339;50.840;4.346;2024-01-06T07:11:29;11.83;;;7.13;;
25409;SDS011;13339;50.840;4.346;2024-01-06T07:13:55;15.00;;;7.67;;
25409;SDS011;13339;50.840;4.346;2024-01-06T07:16:21;14.40;;;7.83;;
25409;SDS011;13339;50.840;4.346;2024-01-06T07:18:47;13.77;;;8.33;;
25409;SDS011;13339;50.840;4.346;2024-01-06T07:21:12;15.17;;;9.20;;
25409;SDS011;13339;50.840;4.346;2024-01-06T07:23:38;14.37;;;9.30;;
25409;SDS011;13339;50.840;4.346;2024-01-06T07:26:04;17.00;;;9.90;;
25409;SDS011;13339;50.840;4.346;2024-01-06T07:28:30;16.53;;;9.27;;
25409;SDS011;13339;50.840;4.346;2024-01-06T07:30:56;15.07;;;8.27;;
25409;SDS011;13339;50.840;4.346;2024-01-06T07:33:21;15.17;;;10.13;;
25409;SDS011;13339;50.840;4.346;2024-01-06T07:35:47;18.43;;;9.33;;
25409;SDS011;13339;50.840;4.346;2024-01-06T07:38:13;22.67;;;10.63;;
25409;SDS011;13339;50.840;4.346;2024-01-06T07:40:39;16.27;;;10.50;;
25409;SDS011;13339;50.840;4.346;2024-01-06T07:43:05;16.67;;;10.17;;
25409;SDS011;13339;50.840;4.346;2024-01-06T07:45:31;22.67;;;11.63;;
25409;SDS011;13339;50.840;4.346;2024-01-06T07:48:00;21.53;;;11.50;;
25409;SDS011;13339;50.840;4.346;2024-01-06T07:50:26;18.20;;;11.80;;
25409;SDS011;13339;50.840;4.346;2024-01-06T07:52:53;21.63;;;11.67;;
25409;SDS011;13339;50.840;4.346;2024-01-06T07:55:19;18.43;;;10.20;;
25409;SDS011;13339;50.840;4.346;2024-01-06T07:57:44;21.10;;;11.90;;
25409;SDS011;13339;50.840;4.346;2024-01-06T08:00:10;20.67;;;12.37;;
25409;SDS011;13339;50.840;4.346;2024-01-06T08:02:39;23.53;;;12.30;;
25409;SDS011;13339;50.840;4.346;2024-01-06T08:05:05;19.33;;;11.40;;
25409;SDS011;13339;50.840;4.346;2024-01-06T08:07:32;21.03;;;12.03;;
25409;SDS011;13339;50.840;4.346;2024-01-06T08:09:58;22.40;;;12.30;;
25409;SDS011;13339;50.840;4.346;2024-01-06T08:12:23;18.47;;;11.17;;
25409;SDS011;13339;50.840;4.346;2024-01-06T08:14:49;18.40;;;11.83;;
25409;SDS011;13339;50.840;4.346;2024-01-06T08:17:14;18.67;;;11.73;;
25409;SDS011;13339;50.840;4.346;2024-01-06T08:19:40;18.77;;;11.77;;
25409;SDS011;13339;50.840;4.346;2024-01-06T08:22:07;16.70;;;10.20;;
25409;SDS011;13339;50.840;4.346;2024-01-06T08:24:32;17.23;;;10.53;;
25409;SDS011;13339;50.840;4.346;2024-01-06T08:26:58;21.23;;;10.90;;
25409;SDS011;13339;50.840;4.346;2024-01-06T08:29:24;17.90;;;9.50;;
25409;SDS011;13339;50.840;4.346;2024-01-06T08:31:50;14.20;;;9.97;;
25409;SDS011;13339;50.840;4.346;2024-01-06T08:34:17;16.40;;;9.80;;
25409;SDS011;13339;50.840;4.346;2024-01-06T08:36:43;17.60;;;9.20;;
25409;SDS011;13339;50.840;4.346;2024-01-06T08:39:09;16.33;;;9.60;;
25409;SDS011;13339;50.840;4.346;2024-01-06T08:41:36;11.97;;;8.00;;
25409;SDS011;13339;50.840;4.346;2024-01-06T08:44:02;17.90;;;7.43;;
25409;SDS011;13339;50.840;4.346;2024-01-06T08:46:28;11.53;;;8.60;;
25409;SDS011;13339;50.840;4.346;2024-01-06T08:48:53;13.57;;;8.40;;
25409;SDS011;13339;50.840;4.346;2024-01-06T08:51:19;16.97;;;8.33;;
25409;SDS011;13339;50.840;4.346;2024-01-06T08:53:45;16.27;;;8.67;;
25409;SDS011;13339;50.840;4.346;2024-01-06T08:56:11;10.93;;;6.67;;
25409;SDS011;13339;50.840;4.346;2024-01-06T08:58:37;11.37;;;6.33;;
25409;SDS011;13339;50.840;4.346;2024-01-06T09:01:02;10.37;;;7.13;;
25409;SDS011;13339;50.840;4.346;2024-01-06T09:03:28;10.80;;;6.90;;
25409;SDS011;13339;50.840;4.346;2024-01-06T09:05:56;10.63;;;6.67;;
25409;SDS011;13339;50.840;4.346;2024-01-06T09:08:22;8.80;;;6.10;;
25409;SDS011;13339;50.840;4.346;2024-01-06T09:10:49;12.43;;;6.30;;
25409;SDS011;13339;50.840;4.346;2024-01-06T09:13:17;9.07;;;6.43;;
25409;SDS011;13339;50.840;4.346;2024-01-06T09:15:43;10.93;;;7.50;;
25409;SDS011;13339;50.840;4.346;2024-01-06T09:18:08;7.77;;;5.70;;
25409;SDS011;13339;50.840;4.346;2024-01-06T09:20:35;12.60;;;7.03;;
25409;SDS011;13339;50.840;4.346;2024-01-06T09:23:00;8.90;;;6.10;;
25409;SDS011;13339;50.840;4.346;2024-01-06T09:25:26;10.13;;;6.70;;
25409;SDS011;13339;50.840;4.346;2024-01-06T09:27:52;11.90;;;6.73;;
25409;SDS011;13339;50.840;4.346;2024-01-06T09:30:18;11.10;;;7.13;;
25409;SDS011;13339;50.840;4.346;2024-01-06T09:32:44;14.97;;;7.47;;
25409;SDS011;13339;50.840;4.346;2024-01-06T09:35:09;12.03;;;6.93;;
25409;SDS011;13339;50.840;4.346;2024-01-06T09:37:35;14.83;;;7.53;;
25409;SDS011;13339;50.840;4.346;2024-01-06T09:40:01;13.17;;;7.50;;
25409;SDS011;13339;50.840;4.346;2024-01-06T09:42:26;12.27;;;8.03;;
25409;SDS011;13339;50.840;4.346;2024-01-06T09:44:52;14.37;;;7.63;;
25409;SDS011;13339;50.840;4.346;2024-01-06T09:47:18;11.23;;;7.93;;
25409;SDS011;13339;50.840;4.346;2024-01-06T09:49:46;14.47;;;8.67;;
25409;SDS011;13339;50.840;4.346;2024-01-06T09:52:14;13.27;;;8.00;;
25409;SDS011;13339;50.840;4.346;2024-01-06T09:54:45;14.73;;;7.70;;
25409;SDS011;13339;50.840;4.346;2024-01-06T09:57:16;13.03;;;7.80;;
25409;SDS011;13339;50.840;4.346;2024-01-06T09:59:43;13.47;;;8.03;;
25409;SDS011;13339;50.840;4.346;2024-01-06T10:02:09;20.47;;;8.67;;
25409;SDS011;13339;50.840;4.346;2024-01-06T10:04:39;14.40;;;8.03;;
25409;SDS011;13339;50.840;4.346;2024-01-06T10:07:05;13.03;;;8.13;;
25409;SDS011;13339;50.840;4.346;2024-01-06T10:09:31;17.47;;;9.10;;
25409;SDS011;13339;50.840;4.346;2024-01-06T10:11:57;14.30;;;8.07;;
25409;SDS011;13339;50.840;4.346;2024-01-06T10:14:24;14.63;;;8.70;;
25409;SDS011;13339;50.840;4.346;2024-01-06T10:16:51;12.13;;;7.73;;
25409;SDS011;13339;50.840;4.346;2024-01-06T10:19:17;12.53;;;8.27;;
25409;SDS011;13339;50.840;4.346;2024-01-06T10:21:43;14.97;;;7.87;;
25409;SDS011;13339;50.840;4.346;2024-01-06T10:24:09;14.77;;;8.37;;
25409;SDS011;13339;50.840;4.346;2024-01-06T10:26:35;10.73;;;7.23;;
25409;SDS011;13339;50.840;4.346;2024-01-06T10:29:01;18.40;;;8.33;;
25409;SDS011;13339;50.840;4.346;2024-01-06T10:31:29;13.53;;;8.27;;
25409;SDS011;13339;50.840;4.346;2024-01-06T10:33:55;16.87;;;7.60;;
25409;SDS011;13339;50.840;4.346;2024-01-06T10:36:22;11.93;;;7.53;;
25409;SDS011;13339;50.840;4.346;2024-01-06T10:38:49;15.23;;;8.90;;
25409;SDS011;13339;50.840;4.346;2024-01-06T10:41:15;11.97;;;7.87;;
25409;SDS011;13339;50.840;4.346;2024-01-06T10:43:41;15.00;;;8.97;;
25409;SDS011;13339;50.840;4.346;2024-01-06T10:46:09;16.57;;;8.27;;
25409;SDS011;13339;50.840;4.346;2024-01-06T10:48:36;15.77;;;8.37;;
25409;SDS011;13339;50.840;4.346;2024-01-06T10:51:10;13.23;;;8.53;;
25409;SDS011;13339;50.840;4.346;2024-01-06T10:53:37;12.07;;;8.03;;
25409;SDS011;13339;50.840;4.346;2024-01-06T10:56:04;11.33;;;7.73;;
25409;SDS011;13339;50.840;4.346;2024-01-06T10:58:35;11.13;;;7.80;;
25409;SDS011;13339;50.840;4.346;2024-01-06T11:01:07;13.10;;;7.80;;
25409;SDS011;13339;50.840;4.346;2024-01-06T11:03:34;11.83;;;7.77;;
25409;SDS011;13339;50.840;4.346;2024-01-06T11:06:07;10.23;;;7.07;;
25409;SDS011;13339;50.840;4.346;2024-01-06T11:08:36;9.47;;;6.63;;
25409;SDS011;13339;50.840;4.346;2024-01-06T11:11:14;15.00;;;7.67;;
25409;SDS011;13339;50.840;4.346;2024-01-06T11:13:44;14.83;;;6.53;;
25409;SDS011;13339;50.840;4.346;2024-01-06T11:16:55;12.57;;;7.50;;
25409;SDS011;13339;50.840;4.346;2024-01-06T11:19:03;10.03;;;7.07;;
25409;SDS011;13339;50.840;4.346;2024-01-06T11:21:48;9.53;;;6.10;;
25409;SDS011;13339;50.840;4.346;2024-01-06T11:26:49;9.60;;;6.37;;
25409;SDS011;13339;50.840;4.346;2024-01-06T11:29:16;10.10;;;6.73;;
25409;SDS011;13339;50.840;4.346;2024-01-06T11:31:43;11.13;;;6.70;;
25409;SDS011;13339;50.840;4.346;2024-01-06T11:34:12;14.27;;;6.47;;
25409;SDS011;13339;50.840;4.346;2024-01-06T11:36:39;9.90;;;6.67;;
25409;SDS011;13339;50.840;4.346;2024-01-06T11:39:05;10.23;;;6.70;;
25409;SDS011;13339;50.840;4.346;2024-01-06T11:41:50;10.03;;;6.53;;
25409;SDS011;13339;50.840;4.346;2024-01-06T11:44:22;10.33;;;6.53;;
25409;SDS011;13339;50.840;4.346;2024-01-06T11:46:48;9.47;;;6.60;;
25409;SDS011;13339;50.840;4.346;2024-01-06T11:49:17;8.40;;;6.20;;
25409;SDS011;13339;50.840;4.346;2024-01-06T11:51:46;7.80;;;5.73;;
25409;SDS011;13339;50.840;4.346;2024-01-06T11:54:11;8.53;;;6.20;;
25409;SDS011;13339;50.840;4.346;2024-01-06T11:56:38;8.17;;;5.63;;
25409;SDS011;13339;50.840;4.346;2024-01-06T11:59:04;8.30;;;6.03;;
25409;SDS011;13339;50.840;4.346;2024-01-06T12:01:39;9.43;;;6.57;;
25409;SDS011;13339;50.840;4.346;2024-01-06T12:04:05;12.13;;;6.80;;
25409;SDS011;13339;50.840;4.346;2024-01-06T12:06:31;9.40;;;6.63;;
25409;SDS011;13339;50.840;4.346;2024-01-06T12:09:04;10.70;;;6.47;;
25409;SDS011;13339;50.840;4.346;2024-01-06T12:11:35;8.33;;;6.00;;
25409;SDS011;13339;50.840;4.346;2024-01-06T12:14:02;9.67;;;6.17;;
25409;SDS011;13339;50.840;4.346;2024-01-06T12:16:28;11.87;;;7.00;;
25409;SDS011;13339;50.840;4.346;2024-01-06T12:18:54;10.70;;;7.27;;
25409;SDS011;13339;50.840;4.346;2024-01-06T12:21:24;9.40;;;6.33;;
25409;SDS011;13339;50.840;4.346;2024-01-06T12:23:50;11.30;;;7.03;;
25409;SDS011;13339;50.840;4.346;2024-01-06T12:26:19;9.03;;;6.30;;
25409;SDS011;13339;50.840;4.346;2024-01-06T12:28:45;10.83;;;6.30;;
25409;SDS011;13339;50.840;4.346;2024-01-06T12:31:11;10.00;;;6.10;;
25409;SDS011;13339;50.840;4.346;2024-01-06T12:33:40;7.40;;;6.47;;
25409;SDS011;13339;50.840;4.346;2024-01-06T12:36:06;9.63;;;6.40;;
25409;SDS011;13339;50.840;4.346;2024-01-06T12:38:34;11.47;;;6.17;;
25409;SDS011;13339;50.840;4.346;2024-01-06T12:41:00;10.00;;;6.70;;
25409;SDS011;13339;50.840;4.346;2024-01-06T12:43:25;6.13;;;5.17;;
25409;SDS011;13339;50.840;4.346;2024-01-06T12:45:52;8.43;;;5.53;;
25409;SDS011;13339;50.840;4.346;2024-01-06T12:48:18;8.20;;;5.00;;
25409;SDS011;13339;50.840;4.346;2024-01-06T12:50:44;7.53;;;5.43;;
25409;SDS011;13339;50.840;4.346;2024-01-06T12:53:09;7.23;;;5.10;;
25409;SDS011;13339;50.840;4.346;2024-01-06T12:55:37;7.60;;;5.43;;
25409;SDS011;13339;50.840;4.346;2024-01-06T12:58:02;8.37;;;6.20;;
25409;SDS011;13339;50.840;4.346;2024-01-06T13:00:29;7.20;;;5.80;;
25409;SDS011;13339;50.840;4.346;2024-01-06T13:02:55;9.23;;;6.30;;
25409;SDS011;13339;50.840;4.346;2024-01-06T13:05:21;8.67;;;6.20;;
25409;SDS011;13339;50.840;4.346;2024-01-06T13:07:47;12.97;;;7.07;;
25409;SDS011;13339;50.840;4.346;2024-01-06T13:10:14;9.40;;;6.27;;
25409;SDS011;13339;50.840;4.346;2024-01-06T13:12:40;8.47;;;6.30;;
25409;SDS011;13339;50.840;4.346;2024-01-06T13:15:06;10.97;;;6.30;;
25409;SDS011;13339;50.840;4.346;2024-01-06T13:17:36;7.53;;;5.83;;
25409;SDS011;13339;50.840;4.346;2024-01-06T13:20:05;9.10;;;6.40;;
25409;SDS011;13339;50.840;4.346;2024-01-06T13:22:31;8.80;;;6.30;;
25409;SDS011;13339;50.840;4.346;2024-01-06T13:24:57;10.97;;;6.90;;
25409;SDS011;13339;50.840;4.346;2024-01-06T13:27:24;8.10;;;6.20;;
25409;SDS011;13339;50.840;4.346;2024-01-06T13:29:50;10.37;;;6.37;;
25409;SDS011;13339;50.840;4.346;2024-01-06T13:32:16;12.33;;;7.07;;
25409;SDS011;13339;50.840;4.346;2024-01-06T13:34:44;10.10;;;7.13;;
25409;SDS011;13339;50.840;4.346;2024-01-06T13:37:09;9.00;;;7.00;;
25409;SDS011;13339;50.840;4.346;2024-01-06T13:39:35;11.80;;;8.00;;
25409;SDS011;13339;50.840;4.346;2024-01-06T13:42:01;11.10;;;7.13;;
25409;SDS011;13339;50.840;4.346;2024-01-06T13:44:28;10.63;;;7.43;;
25409;SDS011;13339;50.840;4.346;2024-01-06T13:46:54;11.57;;;7.23;;
25409;SDS011;13339;50.840;4.346;2024-01-06T13:49:21;11.60;;;7.57;;
25409;SDS011;13339;50.840;4.346;2024-01-06T13:51:48;9.13;;;6.97;;
25409;SDS011;13339;50.840;4.346;2024-01-06T13:54:14;7.77;;;5.63;;
25409;SDS011;13339;50.840;4.346;2024-01-06T13:56:40;6.40;;;5.13;;
25409;SDS011;13339;50.840;4.346;2024-01-06T13:59:05;7.47;;;5.53;;
25409;SDS011;13339;50.840;4.346;2024-01-06T14:01:31;7.37;;;5.57;;
25409;SDS011;13339;50.840;4.346;2024-01-06T14:03:57;8.23;;;5.00;;
25409;SDS011;13339;50.840;4.346;2024-01-06T14:06:26;9.00;;;5.87;;
25409;SDS011;13339;50.840;4.346;2024-01-06T14:08:58;6.63;;;5.20;;
25409;SDS011;13339;50.840;4.346;2024-01-06T14:11:24;5.93;;;4.73;;
25409;SDS011;13339;50.840;4.346;2024-01-06T14:13:51;6.17;;;4.63;;
25409;SDS011;13339;50.840;4.346;2024-01-06T14:16:17;6.67;;;4.60;;
25409;SDS011;13339;50.840;4.346;2024-01-06T14:18:44;10.37;;;5.30;;
25409;SDS011;13339;50.840;4.346;2024-01-06T14:21:10;8.33;;;5.50;;
25409;SDS011;13339;50.840;4.346;2024-01-06T14:23:36;6.80;;;5.20;;
25409;SDS011;13339;50.840;4.346;2024-01-06T14:26:02;6.47;;;4.70;;
25409;SDS011;13339;50.840;4.346;2024-01-06T14:28:28;4.93;;;4.40;;
25409;SDS011;13339;50.840;4.346;2024-01-06T14:30:55;10.10;;;5.10;;
25409;SDS011;13339;50.840;4.346;2024-01-06T14:33:20;7.07;;;5.03;;
25409;SDS011;13339;50.840;4.346;2024-01-06T14:35:46;7.80;;;5.13;;
25409;SDS011;13339;50.840;4.346;2024-01-06T14:38:12;6.93;;;5.17;;